Southwest Harbor, ME (04679)

12:37 PM EST on December 28, 2014 (GMT -0500)
Fire Department | Change Station
CLOSE
Current Station
Personal Weather Station
Location: Southwest Harbor, ME
Elevation: 81 ft
Nearby Weather Stations

Elev 81 ft 44.29 °N, 68.33 °W | Updated 10 seconds ago

Overcast
Overcast
43.7 °F
Feels Like 44 °F
N
0.0
Wind Variable Wind from NW
Gusts 8.0 mph

Today
High -- | Low -- °F
--% Chance of Precip.
Yesterday
High -- | Low -- °F
Precip. -- in
7:08 AM 4:01 PM
Waxing Crescent, 49% visible
Pressure 29.62 in
Visibility 10.0 miles
Clouds Overcast 600 ft
Windchill 44 °F
Dew Point 43 °F
Humidity 99%
Rainfall 0.56 in
Snow Depth Not available.
UV 1 out of 12
Pollen .10 out of 12
Air Quality Not available.
Flu Activity Not available.
METAR KBHB 281715Z AUTO 23006KT 10SM OVC006 07/06 A2962 RMK AO1

More Conditions Fewer Conditions

Pressure 29.62 in
Visibility 10.0 miles
Clouds Overcast 600 ft
Windchill 44 °F
Dew Point 43 °F
Humidity 99%
Rainfall 0.56 in
Snow Depth Not available.
UV 1 out of 12
Pollen .10 out of 12
Air Quality Not available.
Flu Activity Not available.
METAR KBHB 281715Z AUTO 23006KT 10SM OVC006 07/06 A2962 RMK AO1

More Conditions Fewer Conditions

10-Day Weather Forecast

Almanac

Astronomy

Dec. 28, 2014 Rise Set
Actual Time
Civil Twilight
Nautical Twilight
Astronomical Twilight
Moon
Length of Visible Light
Length of Day
Tomorrow will be .
, % of the Moon is Illuminated

Today's Extremes

State Highs State Lows

Community

WunderPhotos

Upload Photos

1,781,365 photos uploaded!

WunderBlogs® & News

Nearby

Air Quality

  Air Quality AQ Index Pollutant
Not available.

Snow Depth

Station Depth Elevation

Earthquake Activity

City Distance Mag. Time & Date
Minimum magnitude displayed is 2.5.

Coastal Water Temperatures

Place Temperature

Nearby Weather Stations